Aérodrome :
LOGIN :

S'inscrire | Disclaimer

   EN    FR    IT 

 










Légende :    VFR   VFR Marginal   IFR   IFR Intensif   IFR Très Intensif
Visi : 
Plafond : 
>= 8 km
>= 3000ft
5 à 8 km
1000 à 3000 ft
1500m à 5 km
500 à 1000 ft
800 à 1500m
200 à 500 ft
< 800m
< 200 ft
Symboles :   Orages  Brouillard  Fortes neiges  Fortes précipitations  Vent > 20 kt
SIGMETs :   Divers  Orages  Givrage  Turbulence  Onde Orograph.  Cendres Volcan.






- Altitude de l'aérodrome : 55 ft
- Code IATA : DSA


EGCN - Robin Hood Doncaster Sheffield

DERNIER METAR :
  • 210750Z 06002KT 9000 BKN023 01/00 Q1008

METARs EXPIRÉS :
  • 210720Z 08002KT 8000 SCT025 02/01 Q1008
  • 210650Z 06002KT 9999 MIFG FEW032 00/M01 Q1009
  • 210620Z VRB01KT 9999 FEW021 01/00 Q1009
  • 210550Z 14002KT CAVOK 02/01 Q1009
  • 210520Z 10003KT CAVOK 02/01 Q1009

TAF TAF EGCN
Valide du 21 à 06h jusqu'au 22 à 06h UTC


210505Z 2106/2206 10005KT 9999 SCT025
PROB40
TEMPO 2106/2116 8000 BKN012
BECMG 2116/2119 7000 BKN012
PROB30
TEMPO 2121/2204 BKN003
TEMPO 2204/2206 RA BKN003



MET'MAP, la Météo Aéronautique d'un coup d'oeil ! - Copyright ORBIFLY Décembre 2007 - Disclaimer

ORBIFLY MET'MAP TEAM :

Programmation & Développement : Alexandra Zaïnal
Conception & Développement : Baudouin d'Aumeries
Co-Programmation & Développement : Marc-Olivier Méhu
Soutien technique & logistique : Manuel Goepfert

Contact : metmap@orbifly.com




SOURCES & CREDITS :

   NOAA